sensor_id;sensor_type;location;lat;lon;timestamp;P1;durP1;ratioP1;P2;durP2;ratioP2
7031;SDS011;3557;48.880;8.328;2022-12-11T00:00:20;25.57;;;11.87;;
7031;SDS011;3557;48.880;8.328;2022-12-11T00:02:47;18.03;;;9.43;;
7031;SDS011;3557;48.880;8.328;2022-12-11T00:05:15;24.27;;;12.07;;
7031;SDS011;3557;48.880;8.328;2022-12-11T00:07:44;26.47;;;13.40;;
7031;SDS011;3557;48.880;8.328;2022-12-11T00:10:11;31.97;;;14.47;;
7031;SDS011;3557;48.880;8.328;2022-12-11T00:12:39;31.67;;;14.20;;
7031;SDS011;3557;48.880;8.328;2022-12-11T00:15:06;33.57;;;15.20;;
7031;SDS011;3557;48.880;8.328;2022-12-11T00:17:35;31.60;;;15.00;;
7031;SDS011;3557;48.880;8.328;2022-12-11T00:20:02;39.23;;;16.30;;
7031;SDS011;3557;48.880;8.328;2022-12-11T00:22:31;38.77;;;18.23;;
7031;SDS011;3557;48.880;8.328;2022-12-11T00:25:00;36.03;;;16.37;;
7031;SDS011;3557;48.880;8.328;2022-12-11T00:27:28;34.50;;;16.53;;
7031;SDS011;3557;48.880;8.328;2022-12-11T00:29:55;33.90;;;16.90;;
7031;SDS011;3557;48.880;8.328;2022-12-11T00:32:23;40.57;;;17.23;;
7031;SDS011;3557;48.880;8.328;2022-12-11T00:34:51;38.43;;;17.17;;
7031;SDS011;3557;48.880;8.328;2022-12-11T00:37:18;47.93;;;19.40;;
7031;SDS011;3557;48.880;8.328;2022-12-11T00:39:46;45.10;;;19.37;;
7031;SDS011;3557;48.880;8.328;2022-12-11T00:42:14;43.53;;;19.07;;
7031;SDS011;3557;48.880;8.328;2022-12-11T00:44:42;44.40;;;18.77;;
7031;SDS011;3557;48.880;8.328;2022-12-11T00:47:10;47.00;;;20.00;;
7031;SDS011;3557;48.880;8.328;2022-12-11T00:49:37;41.77;;;18.97;;
7031;SDS011;3557;48.880;8.328;2022-12-11T00:52:05;50.07;;;20.43;;
7031;SDS011;3557;48.880;8.328;2022-12-11T00:54:33;45.43;;;20.63;;
7031;SDS011;3557;48.880;8.328;2022-12-11T00:57:01;48.93;;;21.27;;
7031;SDS011;3557;48.880;8.328;2022-12-11T00:59:29;42.27;;;19.13;;
7031;SDS011;3557;48.880;8.328;2022-12-11T01:01:57;46.30;;;19.97;;
7031;SDS011;3557;48.880;8.328;2022-12-11T01:04:24;47.23;;;19.40;;
7031;SDS011;3557;48.880;8.328;2022-12-11T01:06:52;46.23;;;19.40;;
7031;SDS011;3557;48.880;8.328;2022-12-11T01:09:19;45.30;;;19.83;;
7031;SDS011;3557;48.880;8.328;2022-12-11T01:12:04;43.03;;;18.93;;
7031;SDS011;3557;48.880;8.328;2022-12-11T01:14:33;45.60;;;19.50;;
7031;SDS011;3557;48.880;8.328;2022-12-11T01:17:01;43.83;;;18.60;;
7031;SDS011;3557;48.880;8.328;2022-12-11T01:19:28;41.67;;;18.53;;
7031;SDS011;3557;48.880;8.328;2022-12-11T01:21:55;41.00;;;17.97;;
7031;SDS011;3557;48.880;8.328;2022-12-11T01:24:23;35.63;;;17.87;;
7031;SDS011;3557;48.880;8.328;2022-12-11T01:26:50;40.03;;;17.90;;
7031;SDS011;3557;48.880;8.328;2022-12-11T01:29:18;38.43;;;17.33;;
7031;SDS011;3557;48.880;8.328;2022-12-11T01:31:46;36.20;;;17.10;;
7031;SDS011;3557;48.880;8.328;2022-12-11T01:34:14;41.93;;;18.13;;
7031;SDS011;3557;48.880;8.328;2022-12-11T01:36:41;39.40;;;17.03;;
7031;SDS011;3557;48.880;8.328;2022-12-11T01:39:09;36.93;;;17.00;;
7031;SDS011;3557;48.880;8.328;2022-12-11T01:41:36;38.23;;;17.77;;
7031;SDS011;3557;48.880;8.328;2022-12-11T01:44:04;37.57;;;17.67;;
7031;SDS011;3557;48.880;8.328;2022-12-11T01:46:54;33.53;;;15.20;;
7031;SDS011;3557;48.880;8.328;2022-12-11T01:49:23;33.20;;;16.30;;
7031;SDS011;3557;48.880;8.328;2022-12-11T01:51:53;35.90;;;17.47;;
7031;SDS011;3557;48.880;8.328;2022-12-11T01:54:23;38.57;;;17.27;;
7031;SDS011;3557;48.880;8.328;2022-12-11T01:56:52;40.30;;;17.57;;
7031;SDS011;3557;48.880;8.328;2022-12-11T01:59:21;36.93;;;15.80;;
7031;SDS011;3557;48.880;8.328;2022-12-11T02:01:53;33.97;;;15.37;;
7031;SDS011;3557;48.880;8.328;2022-12-11T02:04:24;35.53;;;16.73;;
7031;SDS011;3557;48.880;8.328;2022-12-11T02:06:52;33.30;;;15.33;;
7031;SDS011;3557;48.880;8.328;2022-12-11T02:09:20;32.93;;;15.37;;
7031;SDS011;3557;48.880;8.328;2022-12-11T02:11:52;32.20;;;15.90;;
7031;SDS011;3557;48.880;8.328;2022-12-11T02:14:26;41.10;;;16.43;;
7031;SDS011;3557;48.880;8.328;2022-12-11T02:17:00;34.57;;;16.67;;
7031;SDS011;3557;48.880;8.328;2022-12-11T02:19:43;31.90;;;15.33;;
7031;SDS011;3557;48.880;8.328;2022-12-11T02:22:25;29.70;;;15.70;;
7031;SDS011;3557;48.880;8.328;2022-12-11T02:25:03;34.10;;;15.93;;
7031;SDS011;3557;48.880;8.328;2022-12-11T02:27:35;35.73;;;16.43;;
7031;SDS011;3557;48.880;8.328;2022-12-11T02:30:10;33.27;;;16.13;;
7031;SDS011;3557;48.880;8.328;2022-12-11T02:32:40;30.43;;;15.13;;
7031;SDS011;3557;48.880;8.328;2022-12-11T02:35:14;34.47;;;16.17;;
7031;SDS011;3557;48.880;8.328;2022-12-11T02:37:45;32.60;;;15.87;;
7031;SDS011;3557;48.880;8.328;2022-12-11T02:40:16;35.93;;;15.10;;
7031;SDS011;3557;48.880;8.328;2022-12-11T02:42:47;39.70;;;17.37;;
7031;SDS011;3557;48.880;8.328;2022-12-11T02:45:17;35.73;;;15.40;;
7031;SDS011;3557;48.880;8.328;2022-12-11T02:47:45;33.47;;;15.17;;
7031;SDS011;3557;48.880;8.328;2022-12-11T02:50:15;36.23;;;16.97;;
7031;SDS011;3557;48.880;8.328;2022-12-11T02:52:45;32.73;;;15.03;;
7031;SDS011;3557;48.880;8.328;2022-12-11T02:55:14;36.03;;;16.93;;
7031;SDS011;3557;48.880;8.328;2022-12-11T02:57:43;38.93;;;16.77;;
7031;SDS011;3557;48.880;8.328;2022-12-11T03:00:13;38.33;;;16.00;;
7031;SDS011;3557;48.880;8.328;2022-12-11T03:02:44;33.40;;;15.80;;
7031;SDS011;3557;48.880;8.328;2022-12-11T03:05:12;34.93;;;15.80;;
7031;SDS011;3557;48.880;8.328;2022-12-11T03:07:41;34.27;;;15.60;;
7031;SDS011;3557;48.880;8.328;2022-12-11T03:10:10;37.13;;;16.20;;
7031;SDS011;3557;48.880;8.328;2022-12-11T03:12:44;39.33;;;17.23;;
7031;SDS011;3557;48.880;8.328;2022-12-11T03:15:15;34.50;;;16.13;;
7031;SDS011;3557;48.880;8.328;2022-12-11T03:17:50;32.73;;;16.77;;
7031;SDS011;3557;48.880;8.328;2022-12-11T03:20:27;37.43;;;16.90;;
7031;SDS011;3557;48.880;8.328;2022-12-11T03:23:03;35.97;;;16.47;;
7031;SDS011;3557;48.880;8.328;2022-12-11T03:25:39;41.10;;;17.50;;
7031;SDS011;3557;48.880;8.328;2022-12-11T03:28:13;41.87;;;18.50;;
7031;SDS011;3557;48.880;8.328;2022-12-11T03:30:44;44.83;;;18.67;;
7031;SDS011;3557;48.880;8.328;2022-12-11T03:33:16;43.90;;;16.67;;
7031;SDS011;3557;48.880;8.328;2022-12-11T03:35:50;35.63;;;16.23;;
7031;SDS011;3557;48.880;8.328;2022-12-11T03:38:21;38.17;;;17.37;;
7031;SDS011;3557;48.880;8.328;2022-12-11T03:40:52;36.03;;;15.80;;
7031;SDS011;3557;48.880;8.328;2022-12-11T03:43:22;33.37;;;15.93;;
7031;SDS011;3557;48.880;8.328;2022-12-11T03:45:50;40.63;;;16.67;;
7031;SDS011;3557;48.880;8.328;2022-12-11T03:48:19;38.43;;;15.77;;
7031;SDS011;3557;48.880;8.328;2022-12-11T03:50:47;35.93;;;15.97;;
7031;SDS011;3557;48.880;8.328;2022-12-11T03:53:15;38.23;;;17.10;;
7031;SDS011;3557;48.880;8.328;2022-12-11T03:55:43;48.03;;;19.07;;
7031;SDS011;3557;48.880;8.328;2022-12-11T03:58:11;35.30;;;16.07;;
7031;SDS011;3557;48.880;8.328;2022-12-11T04:00:38;38.40;;;16.97;;
7031;SDS011;3557;48.880;8.328;2022-12-11T04:03:06;41.93;;;17.30;;
7031;SDS011;3557;48.880;8.328;2022-12-11T04:05:43;39.40;;;18.37;;
7031;SDS011;3557;48.880;8.328;2022-12-11T04:08:12;37.50;;;16.60;;
7031;SDS011;3557;48.880;8.328;2022-12-11T04:10:40;43.03;;;19.47;;
7031;SDS011;3557;48.880;8.328;2022-12-11T04:13:08;37.27;;;17.33;;
7031;SDS011;3557;48.880;8.328;2022-12-11T04:15:36;45.93;;;18.23;;
7031;SDS011;3557;48.880;8.328;2022-12-11T04:18:03;33.57;;;16.20;;
7031;SDS011;3557;48.880;8.328;2022-12-11T04:20:52;36.43;;;16.60;;
7031;SDS011;3557;48.880;8.328;2022-12-11T04:23:38;37.67;;;15.80;;
7031;SDS011;3557;48.880;8.328;2022-12-11T04:26:23;35.53;;;16.03;;
7031;SDS011;3557;48.880;8.328;2022-12-11T04:28:51;33.63;;;16.43;;
7031;SDS011;3557;48.880;8.328;2022-12-11T04:31:19;34.23;;;15.93;;
7031;SDS011;3557;48.880;8.328;2022-12-11T04:33:47;43.83;;;16.30;;
7031;SDS011;3557;48.880;8.328;2022-12-11T04:36:16;33.33;;;14.23;;
7031;SDS011;3557;48.880;8.328;2022-12-11T04:38:43;37.03;;;15.87;;
7031;SDS011;3557;48.880;8.328;2022-12-11T04:41:12;34.50;;;15.03;;
7031;SDS011;3557;48.880;8.328;2022-12-11T04:43:40;36.50;;;16.13;;
7031;SDS011;3557;48.880;8.328;2022-12-11T04:46:10;34.60;;;15.80;;
7031;SDS011;3557;48.880;8.328;2022-12-11T04:48:39;39.00;;;16.70;;
7031;SDS011;3557;48.880;8.328;2022-12-11T04:51:07;35.60;;;16.33;;
7031;SDS011;3557;48.880;8.328;2022-12-11T04:53:36;37.97;;;16.57;;
7031;SDS011;3557;48.880;8.328;2022-12-11T04:56:04;36.40;;;14.67;;
7031;SDS011;3557;48.880;8.328;2022-12-11T04:58:32;37.03;;;15.73;;
7031;SDS011;3557;48.880;8.328;2022-12-11T05:01:00;33.50;;;16.13;;
7031;SDS011;3557;48.880;8.328;2022-12-11T05:03:32;33.67;;;15.70;;
7031;SDS011;3557;48.880;8.328;2022-12-11T05:05:59;41.67;;;16.47;;
7031;SDS011;3557;48.880;8.328;2022-12-11T05:08:27;36.70;;;15.00;;
7031;SDS011;3557;48.880;8.328;2022-12-11T05:10:56;37.87;;;16.83;;
7031;SDS011;3557;48.880;8.328;2022-12-11T05:13:24;35.87;;;15.63;;
7031;SDS011;3557;48.880;8.328;2022-12-11T05:15:52;35.90;;;15.97;;
7031;SDS011;3557;48.880;8.328;2022-12-11T05:18:20;40.97;;;17.07;;
7031;SDS011;3557;48.880;8.328;2022-12-11T05:20:53;36.77;;;16.13;;
7031;SDS011;3557;48.880;8.328;2022-12-11T05:23:21;38.33;;;16.23;;
7031;SDS011;3557;48.880;8.328;2022-12-11T05:25:52;40.17;;;17.13;;
7031;SDS011;3557;48.880;8.328;2022-12-11T05:28:22;40.53;;;16.60;;
7031;SDS011;3557;48.880;8.328;2022-12-11T05:30:53;38.43;;;15.50;;
7031;SDS011;3557;48.880;8.328;2022-12-11T05:33:22;43.10;;;17.47;;
7031;SDS011;3557;48.880;8.328;2022-12-11T05:35:50;37.10;;;16.83;;
7031;SDS011;3557;48.880;8.328;2022-12-11T05:38:17;37.57;;;17.07;;
7031;SDS011;3557;48.880;8.328;2022-12-11T05:40:53;36.60;;;15.93;;
7031;SDS011;3557;48.880;8.328;2022-12-11T05:43:24;39.23;;;15.70;;
7031;SDS011;3557;48.880;8.328;2022-12-11T05:45:53;36.70;;;16.37;;
7031;SDS011;3557;48.880;8.328;2022-12-11T05:48:21;34.47;;;15.63;;
7031;SDS011;3557;48.880;8.328;2022-12-11T05:50:58;38.07;;;17.80;;
7031;SDS011;3557;48.880;8.328;2022-12-11T05:53:26;39.07;;;16.53;;
7031;SDS011;3557;48.880;8.328;2022-12-11T05:55:59;41.70;;;16.70;;
7031;SDS011;3557;48.880;8.328;2022-12-11T05:58:29;38.90;;;17.10;;
7031;SDS011;3557;48.880;8.328;2022-12-11T06:00:57;41.93;;;17.13;;
7031;SDS011;3557;48.880;8.328;2022-12-11T06:03:25;38.40;;;16.60;;
7031;SDS011;3557;48.880;8.328;2022-12-11T06:05:53;39.10;;;16.70;;
7031;SDS011;3557;48.880;8.328;2022-12-11T06:08:20;39.80;;;16.90;;
7031;SDS011;3557;48.880;8.328;2022-12-11T06:10:48;37.57;;;15.83;;
7031;SDS011;3557;48.880;8.328;2022-12-11T06:13:16;42.33;;;17.93;;
7031;SDS011;3557;48.880;8.328;2022-12-11T06:15:45;37.60;;;16.47;;
7031;SDS011;3557;48.880;8.328;2022-12-11T06:18:12;35.60;;;15.97;;
7031;SDS011;3557;48.880;8.328;2022-12-11T06:20:39;37.27;;;16.10;;
7031;SDS011;3557;48.880;8.328;2022-12-11T06:23:07;41.93;;;17.10;;
7031;SDS011;3557;48.880;8.328;2022-12-11T06:25:34;38.37;;;17.87;;
7031;SDS011;3557;48.880;8.328;2022-12-11T06:28:04;40.33;;;17.50;;
7031;SDS011;3557;48.880;8.328;2022-12-11T06:30:31;41.07;;;18.20;;
7031;SDS011;3557;48.880;8.328;2022-12-11T06:33:00;37.80;;;16.00;;
7031;SDS011;3557;48.880;8.328;2022-12-11T06:35:27;35.37;;;16.63;;
7031;SDS011;3557;48.880;8.328;2022-12-11T06:37:55;35.40;;;16.43;;
7031;SDS011;3557;48.880;8.328;2022-12-11T06:40:22;41.27;;;16.33;;
7031;SDS011;3557;48.880;8.328;2022-12-11T06:42:50;39.87;;;17.67;;
7031;SDS011;3557;48.880;8.328;2022-12-11T06:45:17;41.53;;;18.17;;
7031;SDS011;3557;48.880;8.328;2022-12-11T06:47:45;42.77;;;17.23;;
7031;SDS011;3557;48.880;8.328;2022-12-11T06:50:13;37.30;;;16.47;;
7031;SDS011;3557;48.880;8.328;2022-12-11T06:52:41;38.97;;;16.23;;
7031;SDS011;3557;48.880;8.328;2022-12-11T06:55:08;41.30;;;16.87;;
7031;SDS011;3557;48.880;8.328;2022-12-11T06:57:36;32.67;;;15.43;;
7031;SDS011;3557;48.880;8.328;2022-12-11T07:00:03;33.77;;;15.57;;
7031;SDS011;3557;48.880;8.328;2022-12-11T07:02:32;39.03;;;16.40;;
7031;SDS011;3557;48.880;8.328;2022-12-11T07:05:00;37.90;;;15.93;;
7031;SDS011;3557;48.880;8.328;2022-12-11T07:07:28;37.77;;;17.20;;
7031;SDS011;3557;48.880;8.328;2022-12-11T07:09:56;41.43;;;17.33;;
7031;SDS011;3557;48.880;8.328;2022-12-11T07:12:23;42.07;;;18.83;;
7031;SDS011;3557;48.880;8.328;2022-12-11T07:14:51;41.30;;;16.83;;
7031;SDS011;3557;48.880;8.328;2022-12-11T07:17:18;36.50;;;16.73;;
7031;SDS011;3557;48.880;8.328;2022-12-11T07:19:46;38.73;;;16.80;;
7031;SDS011;3557;48.880;8.328;2022-12-11T07:22:13;39.17;;;17.47;;
7031;SDS011;3557;48.880;8.328;2022-12-11T07:24:42;33.03;;;14.67;;
7031;SDS011;3557;48.880;8.328;2022-12-11T07:27:09;32.93;;;14.67;;
7031;SDS011;3557;48.880;8.328;2022-12-11T07:29:37;34.20;;;15.37;;
7031;SDS011;3557;48.880;8.328;2022-12-11T07:32:05;42.50;;;18.43;;
7031;SDS011;3557;48.880;8.328;2022-12-11T07:34:32;59.40;;;24.50;;
7031;SDS011;3557;48.880;8.328;2022-12-11T07:36:59;53.70;;;22.13;;
7031;SDS011;3557;48.880;8.328;2022-12-11T07:39:27;49.30;;;19.07;;
7031;SDS011;3557;48.880;8.328;2022-12-11T07:41:56;43.70;;;17.77;;
7031;SDS011;3557;48.880;8.328;2022-12-11T07:44:23;43.47;;;18.13;;
7031;SDS011;3557;48.880;8.328;2022-12-11T07:46:50;38.50;;;17.07;;
7031;SDS011;3557;48.880;8.328;2022-12-11T07:49:18;43.53;;;19.50;;
7031;SDS011;3557;48.880;8.328;2022-12-11T07:51:45;38.80;;;16.73;;
7031;SDS011;3557;48.880;8.328;2022-12-11T07:54:13;32.57;;;15.40;;
7031;SDS011;3557;48.880;8.328;2022-12-11T07:56:42;38.87;;;16.30;;
7031;SDS011;3557;48.880;8.328;2022-12-11T07:59:11;34.67;;;14.90;;
7031;SDS011;3557;48.880;8.328;2022-12-11T08:01:39;34.53;;;16.63;;
7031;SDS011;3557;48.880;8.328;2022-12-11T08:04:08;37.40;;;16.20;;
7031;SDS011;3557;48.880;8.328;2022-12-11T08:06:39;39.77;;;17.60;;
7031;SDS011;3557;48.880;8.328;2022-12-11T08:09:10;33.70;;;15.83;;
7031;SDS011;3557;48.880;8.328;2022-12-11T08:11:39;29.27;;;14.70;;
7031;SDS011;3557;48.880;8.328;2022-12-11T08:14:07;29.80;;;14.63;;
7031;SDS011;3557;48.880;8.328;2022-12-11T08:16:36;29.37;;;13.53;;
7031;SDS011;3557;48.880;8.328;2022-12-11T08:19:07;33.43;;;14.37;;
7031;SDS011;3557;48.880;8.328;2022-12-11T08:21:34;29.03;;;14.30;;
7031;SDS011;3557;48.880;8.328;2022-12-11T08:24:02;29.00;;;13.83;;
7031;SDS011;3557;48.880;8.328;2022-12-11T08:26:30;30.00;;;14.23;;
7031;SDS011;3557;48.880;8.328;2022-12-11T08:28:58;28.67;;;13.97;;
7031;SDS011;3557;48.880;8.328;2022-12-11T08:31:27;34.03;;;14.23;;
7031;SDS011;3557;48.880;8.328;2022-12-11T08:33:56;29.07;;;13.17;;
7031;SDS011;3557;48.880;8.328;2022-12-11T08:36:24;28.57;;;13.70;;
7031;SDS011;3557;48.880;8.328;2022-12-11T08:38:52;30.47;;;14.00;;
7031;SDS011;3557;48.880;8.328;2022-12-11T08:41:21;30.63;;;14.03;;
7031;SDS011;3557;48.880;8.328;2022-12-11T08:43:50;31.30;;;13.80;;
7031;SDS011;3557;48.880;8.328;2022-12-11T08:46:19;31.60;;;14.07;;
7031;SDS011;3557;48.880;8.328;2022-12-11T08:48:48;27.60;;;14.00;;
7031;SDS011;3557;48.880;8.328;2022-12-11T08:51:18;31.10;;;13.70;;
7031;SDS011;3557;48.880;8.328;2022-12-11T08:53:47;38.17;;;14.53;;
7031;SDS011;3557;48.880;8.328;2022-12-11T08:56:16;33.17;;;14.57;;
7031;SDS011;3557;48.880;8.328;2022-12-11T08:58:45;30.40;;;14.43;;
7031;SDS011;3557;48.880;8.328;2022-12-11T09:01:14;33.00;;;14.33;;
7031;SDS011;3557;48.880;8.328;2022-12-11T09:03:45;24.93;;;13.30;;
7031;SDS011;3557;48.880;8.328;2022-12-11T09:06:14;28.93;;;14.00;;
7031;SDS011;3557;48.880;8.328;2022-12-11T09:08:45;32.40;;;14.23;;
7031;SDS011;3557;48.880;8.328;2022-12-11T09:11:14;26.63;;;13.13;;
7031;SDS011;3557;48.880;8.328;2022-12-11T09:13:44;29.13;;;13.27;;
7031;SDS011;3557;48.880;8.328;2022-12-11T09:16:13;30.47;;;13.87;;
7031;SDS011;3557;48.880;8.328;2022-12-11T09:18:43;29.20;;;14.07;;
7031;SDS011;3557;48.880;8.328;2022-12-11T09:21:13;28.47;;;13.70;;
7031;SDS011;3557;48.880;8.328;2022-12-11T09:23:43;25.77;;;13.13;;
7031;SDS011;3557;48.880;8.328;2022-12-11T09:26:12;31.53;;;13.80;;
7031;SDS011;3557;48.880;8.328;2022-12-11T09:28:42;33.47;;;16.17;;
7031;SDS011;3557;48.880;8.328;2022-12-11T09:31:10;34.63;;;15.50;;
7031;SDS011;3557;48.880;8.328;2022-12-11T09:33:39;33.53;;;15.03;;
7031;SDS011;3557;48.880;8.328;2022-12-11T09:36:07;32.43;;;15.93;;
7031;SDS011;3557;48.880;8.328;2022-12-11T09:38:35;34.10;;;14.90;;
7031;SDS011;3557;48.880;8.328;2022-12-11T09:41:14;33.33;;;15.63;;
7031;SDS011;3557;48.880;8.328;2022-12-11T09:44:02;31.57;;;14.93;;
7031;SDS011;3557;48.880;8.328;2022-12-11T09:46:42;33.83;;;15.67;;
7031;SDS011;3557;48.880;8.328;2022-12-11T09:49:11;33.10;;;14.77;;
7031;SDS011;3557;48.880;8.328;2022-12-11T09:51:54;31.53;;;14.53;;
7031;SDS011;3557;48.880;8.328;2022-12-11T09:54:27;29.73;;;14.70;;
7031;SDS011;3557;48.880;8.328;2022-12-11T09:56:57;31.33;;;15.40;;
7031;SDS011;3557;48.880;8.328;2022-12-11T09:59:34;33.33;;;14.80;;
7031;SDS011;3557;48.880;8.328;2022-12-11T10:02:11;31.93;;;14.77;;
7031;SDS011;3557;48.880;8.328;2022-12-11T10:04:51;36.60;;;15.90;;
7031;SDS011;3557;48.880;8.328;2022-12-11T10:07:29;30.27;;;14.17;;
7031;SDS011;3557;48.880;8.328;2022-12-11T10:10:05;29.13;;;14.77;;
7031;SDS011;3557;48.880;8.328;2022-12-11T10:12:44;33.43;;;14.53;;
7031;SDS011;3557;48.880;8.328;2022-12-11T10:15:23;29.50;;;15.20;;
7031;SDS011;3557;48.880;8.328;2022-12-11T10:17:58;33.40;;;16.53;;
7031;SDS011;3557;48.880;8.328;2022-12-11T10:20:27;28.80;;;14.60;;
7031;SDS011;3557;48.880;8.328;2022-12-11T10:22:59;32.53;;;15.27;;
7031;SDS011;3557;48.880;8.328;2022-12-11T10:25:28;34.70;;;16.27;;
7031;SDS011;3557;48.880;8.328;2022-12-11T10:28:00;29.93;;;15.20;;
7031;SDS011;3557;48.880;8.328;2022-12-11T10:30:36;27.77;;;14.20;;
7031;SDS011;3557;48.880;8.328;2022-12-11T10:33:13;30.03;;;14.90;;
7031;SDS011;3557;48.880;8.328;2022-12-11T10:35:46;34.40;;;16.37;;
7031;SDS011;3557;48.880;8.328;2022-12-11T10:38:19;30.80;;;15.07;;
7031;SDS011;3557;48.880;8.328;2022-12-11T10:40:51;33.40;;;14.23;;
7031;SDS011;3557;48.880;8.328;2022-12-11T10:43:32;27.27;;;14.43;;
7031;SDS011;3557;48.880;8.328;2022-12-11T10:46:01;24.47;;;13.83;;
7031;SDS011;3557;48.880;8.328;2022-12-11T10:48:30;28.47;;;13.47;;
7031;SDS011;3557;48.880;8.328;2022-12-11T10:50:59;27.13;;;15.03;;
7031;SDS011;3557;48.880;8.328;2022-12-11T10:53:28;28.03;;;14.20;;
7031;SDS011;3557;48.880;8.328;2022-12-11T10:55:57;26.80;;;14.10;;
7031;SDS011;3557;48.880;8.328;2022-12-11T10:58:26;24.93;;;13.27;;
7031;SDS011;3557;48.880;8.328;2022-12-11T11:01:09;24.47;;;12.30;;
7031;SDS011;3557;48.880;8.328;2022-12-11T11:03:42;23.97;;;11.90;;
7031;SDS011;3557;48.880;8.328;2022-12-11T11:06:22;20.63;;;11.67;;
7031;SDS011;3557;48.880;8.328;2022-12-11T11:08:51;22.80;;;11.30;;
7031;SDS011;3557;48.880;8.328;2022-12-11T11:11:22;18.90;;;10.67;;
7031;SDS011;3557;48.880;8.328;2022-12-11T11:14:03;19.90;;;11.10;;
7031;SDS011;3557;48.880;8.328;2022-12-11T11:16:42;19.87;;;11.27;;
7031;SDS011;3557;48.880;8.328;2022-12-11T11:19:16;22.83;;;11.83;;
7031;SDS011;3557;48.880;8.328;2022-12-11T11:21:47;19.27;;;11.03;;
7031;SDS011;3557;48.880;8.328;2022-12-11T11:24:20;17.37;;;10.90;;
7031;SDS011;3557;48.880;8.328;2022-12-11T11:26:54;21.10;;;11.10;;
7031;SDS011;3557;48.880;8.328;2022-12-11T11:29:24;17.60;;;10.63;;
7031;SDS011;3557;48.880;8.328;2022-12-11T11:31:56;17.23;;;10.53;;
7031;SDS011;3557;48.880;8.328;2022-12-11T11:34:24;19.90;;;10.50;;
7031;SDS011;3557;48.880;8.328;2022-12-11T11:36:55;19.70;;;10.87;;
7031;SDS011;3557;48.880;8.328;2022-12-11T11:39:30;19.40;;;11.23;;
7031;SDS011;3557;48.880;8.328;2022-12-11T11:42:02;16.60;;;10.07;;
7031;SDS011;3557;48.880;8.328;2022-12-11T11:44:36;17.00;;;10.40;;
7031;SDS011;3557;48.880;8.328;2022-12-11T11:47:09;20.93;;;11.93;;
7031;SDS011;3557;48.880;8.328;2022-12-11T11:49:45;21.07;;;10.63;;
7031;SDS011;3557;48.880;8.328;2022-12-11T11:52:16;20.57;;;11.57;;
7031;SDS011;3557;48.880;8.328;2022-12-11T11:54:51;21.70;;;11.07;;
7031;SDS011;3557;48.880;8.328;2022-12-11T11:57:28;16.33;;;9.97;;
7031;SDS011;3557;48.880;8.328;2022-12-11T12:00:02;20.37;;;11.60;;
7031;SDS011;3557;48.880;8.328;2022-12-11T12:02:39;28.03;;;13.47;;
7031;SDS011;3557;48.880;8.328;2022-12-11T12:05:08;21.90;;;11.57;;
7031;SDS011;3557;48.880;8.328;2022-12-11T12:07:39;20.30;;;10.60;;
7031;SDS011;3557;48.880;8.328;2022-12-11T12:10:13;17.87;;;9.97;;
7031;SDS011;3557;48.880;8.328;2022-12-11T12:12:46;17.00;;;10.03;;
7031;SDS011;3557;48.880;8.328;2022-12-11T12:15:29;18.17;;;11.00;;
7031;SDS011;3557;48.880;8.328;2022-12-11T12:18:07;19.37;;;11.00;;
7031;SDS011;3557;48.880;8.328;2022-12-11T12:20:42;17.23;;;9.70;;
7031;SDS011;3557;48.880;8.328;2022-12-11T12:23:30;18.23;;;10.60;;
7031;SDS011;3557;48.880;8.328;2022-12-11T12:26:08;17.53;;;10.37;;
7031;SDS011;3557;48.880;8.328;2022-12-11T12:28:41;19.17;;;9.97;;
7031;SDS011;3557;48.880;8.328;2022-12-11T12:31:20;19.77;;;10.57;;
7031;SDS011;3557;48.880;8.328;2022-12-11T12:34:04;18.83;;;10.70;;
7031;SDS011;3557;48.880;8.328;2022-12-11T12:36:40;18.40;;;11.43;;
7031;SDS011;3557;48.880;8.328;2022-12-11T12:39:13;21.83;;;12.83;;
7031;SDS011;3557;48.880;8.328;2022-12-11T12:41:48;22.53;;;12.60;;
7031;SDS011;3557;48.880;8.328;2022-12-11T12:44:22;20.23;;;10.87;;
7031;SDS011;3557;48.880;8.328;2022-12-11T12:46:53;20.00;;;11.60;;
7031;SDS011;3557;48.880;8.328;2022-12-11T12:49:29;19.63;;;11.73;;
7031;SDS011;3557;48.880;8.328;2022-12-11T12:52:01;18.50;;;11.47;;
7031;SDS011;3557;48.880;8.328;2022-12-11T12:54:30;17.60;;;11.30;;
7031;SDS011;3557;48.880;8.328;2022-12-11T12:56:59;18.23;;;11.00;;
7031;SDS011;3557;48.880;8.328;2022-12-11T12:59:29;19.20;;;11.13;;
7031;SDS011;3557;48.880;8.328;2022-12-11T13:01:57;19.60;;;11.60;;
7031;SDS011;3557;48.880;8.328;2022-12-11T13:04:33;20.43;;;11.40;;
7031;SDS011;3557;48.880;8.328;2022-12-11T13:07:10;19.17;;;10.97;;
7031;SDS011;3557;48.880;8.328;2022-12-11T13:09:41;21.73;;;11.73;;
7031;SDS011;3557;48.880;8.328;2022-12-11T13:12:13;19.03;;;11.13;;
7031;SDS011;3557;48.880;8.328;2022-12-11T13:14:41;20.97;;;11.17;;
7031;SDS011;3557;48.880;8.328;2022-12-11T13:17:25;20.27;;;11.80;;
7031;SDS011;3557;48.880;8.328;2022-12-11T13:20:12;20.07;;;10.93;;
7031;SDS011;3557;48.880;8.328;2022-12-11T13:22:47;18.63;;;10.67;;
7031;SDS011;3557;48.880;8.328;2022-12-11T13:25:23;18.57;;;10.30;;
7031;SDS011;3557;48.880;8.328;2022-12-11T13:28:05;19.03;;;10.97;;
7031;SDS011;3557;48.880;8.328;2022-12-11T13:30:44;19.70;;;10.87;;
7031;SDS011;3557;48.880;8.328;2022-12-11T13:33:13;18.53;;;11.03;;
7031;SDS011;3557;48.880;8.328;2022-12-11T13:35:44;20.60;;;11.60;;
7031;SDS011;3557;48.880;8.328;2022-12-11T13:38:13;19.50;;;11.37;;
7031;SDS011;3557;48.880;8.328;2022-12-11T13:40:43;17.50;;;11.37;;
7031;SDS011;3557;48.880;8.328;2022-12-11T13:43:15;22.47;;;11.07;;
7031;SDS011;3557;48.880;8.328;2022-12-11T13:45:46;19.30;;;11.30;;
7031;SDS011;3557;48.880;8.328;2022-12-11T13:48:17;18.60;;;11.40;;
7031;SDS011;3557;48.880;8.328;2022-12-11T13:50:50;22.00;;;11.47;;
7031;SDS011;3557;48.880;8.328;2022-12-11T13:53:19;20.50;;;11.87;;
7031;SDS011;3557;48.880;8.328;2022-12-11T13:55:54;21.70;;;11.50;;
7031;SDS011;3557;48.880;8.328;2022-12-11T13:58:22;17.90;;;10.77;;
7031;SDS011;3557;48.880;8.328;2022-12-11T14:00:52;19.53;;;11.33;;
7031;SDS011;3557;48.880;8.328;2022-12-11T14:03:31;21.60;;;12.33;;
7031;SDS011;3557;48.880;8.328;2022-12-11T14:06:01;21.33;;;11.67;;
7031;SDS011;3557;48.880;8.328;2022-12-11T14:08:31;19.47;;;10.63;;
7031;SDS011;3557;48.880;8.328;2022-12-11T14:11:01;18.07;;;10.97;;
7031;SDS011;3557;48.880;8.328;2022-12-11T14:13:30;21.77;;;12.43;;
7031;SDS011;3557;48.880;8.328;2022-12-11T14:15:59;26.33;;;13.43;;
7031;SDS011;3557;48.880;8.328;2022-12-11T14:18:28;23.97;;;12.27;;
7031;SDS011;3557;48.880;8.328;2022-12-11T14:20:58;25.30;;;12.03;;
7031;SDS011;3557;48.880;8.328;2022-12-11T14:23:30;20.37;;;11.63;;
7031;SDS011;3557;48.880;8.328;2022-12-11T14:26:02;21.40;;;11.40;;
7031;SDS011;3557;48.880;8.328;2022-12-11T14:28:48;25.27;;;11.90;;
7031;SDS011;3557;48.880;8.328;2022-12-11T14:31:26;22.60;;;12.63;;
7031;SDS011;3557;48.880;8.328;2022-12-11T14:33:57;25.20;;;14.17;;
7031;SDS011;3557;48.880;8.328;2022-12-11T14:36:28;22.73;;;13.07;;
7031;SDS011;3557;48.880;8.328;2022-12-11T14:38:58;27.73;;;13.13;;
7031;SDS011;3557;48.880;8.328;2022-12-11T14:41:31;22.67;;;12.67;;
7031;SDS011;3557;48.880;8.328;2022-12-11T14:44:11;25.10;;;12.83;;
7031;SDS011;3557;48.880;8.328;2022-12-11T14:46:42;20.60;;;12.50;;
7031;SDS011;3557;48.880;8.328;2022-12-11T14:49:15;24.67;;;13.63;;
7031;SDS011;3557;48.880;8.328;2022-12-11T14:51:47;21.57;;;12.70;;
7031;SDS011;3557;48.880;8.328;2022-12-11T14:54:19;20.77;;;11.93;;
7031;SDS011;3557;48.880;8.328;2022-12-11T14:56:53;29.57;;;15.70;;
7031;SDS011;3557;48.880;8.328;2022-12-11T14:59:22;25.73;;;14.77;;
7031;SDS011;3557;48.880;8.328;2022-12-11T15:01:57;31.97;;;16.60;;
7031;SDS011;3557;48.880;8.328;2022-12-11T15:04:28;21.33;;;12.33;;
7031;SDS011;3557;48.880;8.328;2022-12-11T15:07:00;20.27;;;11.73;;
7031;SDS011;3557;48.880;8.328;2022-12-11T15:09:28;22.70;;;12.60;;